Time;durP1;ratioP1;P1;durP2;ratioP2;P2;SDS_P1;SDS_P2;PMS_P1;PMS_P2;Temp;Humidity;BMP_temperature;BMP_pressure;BME280_temperature;BME280_humidity;BME280_pressure;Samples;Min_cycle;Max_cycle;Signal;HPM_P1;HPM_P2
2024/04/10 04:46:32;;;;;;;19.20;6.80;;;;;;;10.12;98.94;100513.52;112868;1241;22433;-52
2024/04/10 04:48:59;;;;;;;25.80;7.90;;;;;;;10.24;98.56;100507.34;112889;1249;22369;-51
2024/04/10 04:51:28;;;;;;;23.00;8.20;;;;;;;10.36;97.68;100505.66;112895;1239;22418;-45
2024/04/10 04:53:55;;;;;;;17.50;8.00;;;;;;;10.50;97.11;100506.59;112820;1246;23002;-52
2024/04/10 04:56:21;;;;;;;16.00;7.20;;;;;;;10.63;96.51;100506.45;112857;1240;22928;-51
2024/04/10 04:58:48;;;;;;;19.10;8.70;;;;;;;10.76;96.41;100511.90;112872;1240;22341;-46
2024/04/10 05:01:15;;;;;;;29.50;11.30;;;;;;;10.89;96.42;100517.36;112960;1241;22406;-44
2024/04/10 05:06:27;;;;;;;22.70;7.70;;;;;;;11.18;94.89;100524.73;112931;1249;22961;-47
2024/04/10 05:08:54;;;;;;;21.30;6.90;;;;;;;11.32;94.68;100526.66;112988;1249;22852;-45
2024/04/10 05:11:21;;;;;;;18.10;6.80;;;;;;;11.48;94.32;100524.91;112961;1249;22413;-45
2024/04/10 05:13:48;;;;;;;20.80;6.80;;;;;;;11.66;93.92;100524.38;112628;1249;22935;-47
2024/04/10 05:16:16;;;;;;;35.10;7.50;;;;;;;11.83;93.54;100519.14;112409;1249;22578;-45
2024/04/10 05:18:43;;;;;;;16.10;7.10;;;;;;;12.01;92.89;100521.56;112886;1248;23155;-50
2024/04/10 05:21:10;;;;;;;14.30;7.10;;;;;;;12.18;92.02;100516.10;112902;1249;22228;-51
2024/04/10 05:23:37;;;;;;;22.10;7.50;;;;;;;12.35;91.04;100518.83;112721;1249;22447;-45
2024/04/10 05:26:04;;;;;;;20.10;6.80;;;;;;;12.52;90.03;100518.06;112704;1249;22426;-45
2024/04/10 05:28:49;;;;;;;35.70;8.20;;;;;;;12.69;89.37;100519.05;112561;1249;22678;-44
2024/04/10 05:31:47;;;;;;;27.10;8.10;;;;;;;12.86;88.69;100519.30;112657;1249;22374;-45
2024/04/10 05:50:12;;;;;;;22.50;7.10;;;;;;;14.07;84.20;100528.33;112745;1249;22397;-48
2024/04/10 05:53:16;;;;;;;19.90;7.40;;;;;;;14.32;83.26;100526.48;112558;1243;23358;-53
2024/04/10 05:55:43;;;;;;;24.40;6.70;;;;;;;14.52;82.43;100526.95;112757;1249;22384;-52
2024/04/10 05:58:10;;;;;;;16.90;7.10;;;;;;;14.72;81.45;100528.81;112741;1249;22402;-54
2024/04/10 06:00:37;;;;;;;21.60;7.00;;;;;;;14.93;80.19;100532.20;112647;1248;23204;-48
2024/04/10 06:03:04;;;;;;;16.10;6.70;;;;;;;15.12;78.98;100533.88;112471;1249;22266;-56
2024/04/10 06:05:32;;;;;;;11.60;6.40;;;;;;;15.32;77.88;100538.14;112678;1249;23381;-47
2024/04/10 06:07:59;;;;;;;15.30;6.70;;;;;;;15.50;76.63;100538.56;112638;1249;22331;-56
2024/04/10 06:10:26;;;;;;;14.40;6.20;;;;;;;15.67;75.80;100533.91;111338;1248;22433;-56
2024/04/10 06:12:53;;;;;;;18.50;7.10;;;;;;;15.85;75.09;100534.13;112886;1249;23020;-56
2024/04/10 06:15:20;;;;;;;15.30;6.50;;;;;;;16.04;73.94;100537.83;112845;1248;22412;-54
2024/04/10 06:17:47;;;;;;;12.30;5.80;;;;;;;16.23;72.91;100536.23;112633;1249;22377;-54
2024/04/10 06:20:19;;;;;;;20.90;5.30;;;;;;;16.40;72.11;100537.11;112397;1249;22457;-54
2024/04/10 06:22:57;;;;;;;22.40;7.20;;;;;;;16.61;71.42;100537.39;112404;1249;22525;-53
2024/04/10 06:25:31;;;;;;;16.60;6.20;;;;;;;16.82;70.63;100536.81;112451;1249;22408;-53
2024/04/10 06:27:58;;;;;;;24.80;6.80;;;;;;;17.00;70.05;100536.92;112391;1249;23381;-54
2024/04/10 06:30:25;;;;;;;19.90;6.10;;;;;;;17.18;69.55;100536.33;112622;1249;22431;-53
2024/04/10 06:32:52;;;;;;;13.40;6.50;;;;;;;17.35;69.37;100534.70;112639;1249;22425;-54
2024/04/10 06:35:20;;;;;;;18.50;6.70;;;;;;;17.52;68.85;100536.58;112620;1248;22383;-54
2024/04/10 06:37:53;;;;;;;16.40;5.70;;;;;;;17.69;68.34;100532.11;112353;1249;22405;-53
2024/04/10 06:40:21;;;;;;;11.70;4.70;;;;;;;17.89;68.09;100526.16;112697;1249;22491;-53
2024/04/10 06:42:48;;;;;;;9.10;5.60;;;;;;;18.05;66.46;100523.06;112697;1249;22314;-54
2024/04/10 06:45:15;;;;;;;11.50;4.60;;;;;;;18.21;65.73;100520.17;112704;1249;23156;-55
2024/04/10 06:47:42;;;;;;;7.90;4.40;;;;;;;18.40;64.93;100526.16;112451;1249;23061;-53
2024/04/10 06:50:12;;;;;;;8.00;4.40;;;;;;;18.59;64.08;100521.20;112803;1249;22166;-53
2024/04/10 06:52:43;;;;;;;12.20;4.00;;;;;;;18.78;63.51;100519.60;112807;1249;22363;-53
2024/04/10 06:55:10;;;;;;;6.80;4.50;;;;;;;18.96;62.78;100521.16;112839;1249;22221;-53
2024/04/10 06:57:37;;;;;;;9.30;4.70;;;;;;;19.15;62.38;100517.91;112462;1249;22415;-53
2024/04/10 07:00:12;;;;;;;12.80;6.80;;;;;;;19.34;61.41;100522.43;112801;1249;22696;-54
2024/04/10 07:02:40;;;;;;;13.40;5.10;;;;;;;19.56;60.73;100522.61;112854;1249;22364;-53
2024/04/10 07:05:08;;;;;;;13.20;5.30;;;;;;;19.75;59.60;100522.86;112911;1249;22415;-46
2024/04/10 07:07:35;;;;;;;12.80;5.30;;;;;;;19.93;58.41;100523.48;112795;1249;23287;-49
2024/04/10 07:10:03;;;;;;;14.20;4.30;;;;;;;20.12;57.24;100523.69;112799;1249;22388;-54
2024/04/10 07:12:36;;;;;;;11.30;4.20;;;;;;;20.32;56.46;100525.64;112369;1249;22379;-54
2024/04/10 07:40:59;;;;;;;3.20;1.90;;;;;;;22.23;45.45;100498.42;112772;1248;22368;-55
2024/04/10 07:49:00;;;;;;;6.80;2.40;;;;;;;22.78;43.87;100488.02;112934;1249;22345;-53
2024/04/10 07:52:40;;;;;;;5.80;2.10;;;;;;;22.98;42.29;100489.42;111833;1249;22609;-47
2024/04/10 07:59:26;;;;;;;6.40;3.30;;;;;;;23.25;41.59;100491.48;111853;1249;22524;-47
2024/04/10 08:03:13;;;;;;;8.70;2.40;;;;;;;23.46;40.74;100491.88;111812;1249;22621;-53
2024/04/10 08:18:53;;;;;;;6.60;2.30;;;;;;;24.20;38.39;100483.05;111351;1249;22521;-52
2024/04/10 08:22:35;;;;;;;6.20;1.90;;;;;;;24.36;37.63;100479.36;112539;1248;22436;-54
2024/04/10 08:25:50;;;;;;;3.10;2.00;;;;;;;24.50;36.81;100475.41;112774;1249;22415;-54
2024/04/10 08:28:26;;;;;;;6.30;2.30;;;;;;;24.59;35.33;100473.86;112736;1249;22353;-52
2024/04/10 08:30:54;;;;;;;3.00;1.80;;;;;;;24.63;36.05;100473.09;112873;1248;22240;-53
2024/04/10 08:33:23;;;;;;;4.30;2.20;;;;;;;24.70;36.14;100473.05;112610;1249;23150;-46
2024/04/10 08:35:59;;;;;;;4.60;2.10;;;;;;;24.80;34.90;100475.73;112037;1249;24176;-46
2024/04/10 08:41:57;;;;;;;6.10;2.50;;;;;;;24.85;34.87;100466.13;112624;1249;22401;-53
2024/04/10 08:44:26;;;;;;;7.70;2.30;;;;;;;24.94;35.44;100464.02;111996;1249;22474;-47
2024/04/10 08:46:55;;;;;;;2.40;1.80;;;;;;;25.03;34.95;100464.59;111693;1235;23249;-46
2024/04/10 08:49:24;;;;;;;3.40;2.30;;;;;;;25.12;35.47;100463.20;112427;1249;22964;-46
2024/04/10 08:51:53;;;;;;;3.50;2.30;;;;;;;25.23;34.61;100460.06;112574;1249;22735;-46
2024/04/10 08:54:20;;;;;;;5.40;2.20;;;;;;;25.33;34.22;100462.68;112858;1249;22880;-46
2024/04/10 08:56:49;;;;;;;3.40;1.90;;;;;;;25.40;33.52;100458.71;112662;1249;22449;-52
2024/04/10 08:59:18;;;;;;;3.70;2.00;;;;;;;25.43;33.21;100461.02;111564;1249;22943;-45
2024/04/10 09:01:46;;;;;;;3.90;2.00;;;;;;;25.45;32.21;100457.31;112421;1245;22437;-46
2024/04/10 09:04:22;;;;;;;3.20;2.10;;;;;;;25.45;32.15;100458.77;112325;1249;22562;-46
2024/04/10 09:07:01;;;;;;;6.00;2.20;;;;;;;25.51;33.50;100459.68;111798;1248;23674;-53
2024/04/10 09:09:29;;;;;;;3.20;1.80;;;;;;;25.62;34.02;100459.55;112505;1249;22391;-53
2024/04/10 09:11:56;;;;;;;4.20;2.30;;;;;;;25.65;32.42;100459.38;112807;1249;22388;-53
2024/04/10 09:14:27;;;;;;;9.50;4.10;;;;;;;25.68;31.75;100460.80;112758;1248;23252;-53
2024/04/10 09:17:01;;;;;;;3.10;2.40;;;;;;;25.72;31.76;100457.89;112784;1249;22355;-53
2024/04/10 09:19:29;;;;;;;4.20;2.40;;;;;;;25.72;31.72;100453.04;112866;1249;22283;-54
2024/04/10 09:21:58;;;;;;;6.90;2.20;;;;;;;25.76;31.82;100451.41;112693;1249;23058;-47
2024/04/10 09:24:29;;;;;;;3.40;2.10;;;;;;;25.81;32.01;100448.45;112408;1249;22521;-46
2024/04/10 09:26:58;;;;;;;5.40;2.50;;;;;;;25.84;32.19;100449.86;112491;1249;22668;-46
2024/04/10 09:29:29;;;;;;;2.90;1.80;;;;;;;25.92;31.67;100447.04;112770;1249;23126;-46
2024/04/10 09:32:04;;;;;;;4.30;2.60;;;;;;;26.02;31.35;100451.44;112748;1249;22877;-47
2024/04/10 09:34:31;;;;;;;3.00;1.90;;;;;;;26.15;31.86;100450.62;112772;1248;23207;-46
2024/04/10 09:37:00;;;;;;;3.20;1.90;;;;;;;26.27;31.22;100450.59;112601;1249;22211;-46
2024/04/10 09:39:27;;;;;;;6.40;1.90;;;;;;;26.31;30.15;100446.73;112653;1249;23225;-54
2024/04/10 09:42:00;;;;;;;2.70;2.20;;;;;;;26.35;30.00;100449.52;112921;1249;22380;-54
2024/04/10 09:44:29;;;;;;;6.20;2.30;;;;;;;26.38;29.74;100445.94;112869;1249;23107;-54
2024/04/10 09:47:00;;;;;;;6.40;1.70;;;;;;;26.40;30.11;100445.10;112844;1249;22425;-54
2024/04/10 09:49:28;;;;;;;6.70;2.10;;;;;;;26.43;30.54;100443.86;112833;1240;22371;-54
2024/04/10 09:52:01;;;;;;;6.30;1.80;;;;;;;26.48;30.57;100438.35;112801;1249;23133;-54
2024/04/10 09:54:28;;;;;;;8.80;2.20;;;;;;;26.49;29.84;100441.13;112824;1249;22236;-54
2024/04/10 09:56:56;;;;;;;3.90;2.50;;;;;;;26.55;29.65;100439.18;112844;1240;22564;-54
2024/04/10 09:59:23;;;;;;;4.70;2.30;;;;;;;26.65;29.60;100439.27;112659;1249;22506;-54
2024/04/10 10:01:54;;;;;;;9.30;2.30;;;;;;;26.71;29.65;100437.96;112673;1249;22421;-54
2024/04/10 10:04:21;;;;;;;8.60;2.30;;;;;;;26.67;29.04;100446.08;112763;1249;22697;-54
2024/04/10 10:06:48;;;;;;;4.40;2.20;;;;;;;26.51;29.93;100445.16;112792;1249;22410;-54
2024/04/10 10:09:24;;;;;;;6.00;2.10;;;;;;;26.39;30.75;100448.95;112788;1249;22419;-54
2024/04/10 10:11:58;;;;;;;5.20;2.80;;;;;;;26.41;30.44;100446.64;112759;1249;23178;-54
2024/04/10 10:14:25;;;;;;;3.10;2.00;;;;;;;26.52;30.56;100450.09;112754;1249;23416;-54
2024/04/10 10:17:03;;;;;;;6.60;2.20;;;;;;;26.63;29.52;100448.66;112673;1249;22398;-54
2024/04/10 10:19:36;;;;;;;2.10;1.90;;;;;;;26.77;29.00;100454.05;112752;1249;23035;-54
2024/04/10 10:22:03;;;;;;;;;;;;;;;26.98;28.22;100451.41;112826;1249;23192;-54
2024/04/10 10:24:31;;;;;;;3.60;2.10;;;;;;;27.21;27.81;100446.69;112810;1249;22365;-54
2024/04/10 10:27:02;;;;;;;3.80;2.20;;;;;;;27.47;27.75;100448.00;112563;1249;22395;-54
2024/04/10 10:29:30;;;;;;;4.50;2.10;;;;;;;27.74;27.65;100442.16;112788;1249;22449;-46
2024/04/10 10:32:05;;;;;;;5.10;1.80;;;;;;;28.06;27.07;100447.33;112813;1249;22403;-54
2024/04/10 10:34:32;;;;;;;4.30;2.00;;;;;;;28.39;26.89;100441.39;112726;1249;22374;-46
2024/04/10 10:37:06;;;;;;;2.80;1.90;;;;;;;28.72;26.33;100444.21;112707;1249;22857;-46
2024/04/10 10:39:33;;;;;;;4.60;2.50;;;;;;;29.08;25.83;100444.23;112758;1249;22937;-46
2024/04/10 10:42:04;;;;;;;7.60;2.00;;;;;;;29.46;25.19;100439.98;112867;1249;22861;-47
2024/04/10 10:44:31;;;;;;;4.60;2.00;;;;;;;29.74;24.73;100431.84;112922;1249;22382;-46
2024/04/10 10:46:59;;;;;;;4.40;2.40;;;;;;;29.88;24.15;100430.55;112936;1248;22369;-46
2024/04/10 10:49:26;;;;;;;4.90;2.10;;;;;;;30.08;24.37;100428.82;112927;1248;22410;-47
2024/04/10 10:51:54;;;;;;;5.90;2.30;;;;;;;30.34;24.03;100426.78;112957;1249;23325;-54
2024/04/10 10:54:21;;;;;;;7.90;2.30;;;;;;;30.68;24.24;100428.32;112704;1249;23175;-54
2024/04/10 10:56:48;;;;;;;5.30;2.10;;;;;;;31.21;23.48;100431.35;112814;1249;22496;-46
2024/04/10 10:59:15;;;;;;;9.80;2.40;;;;;;;31.72;23.04;100428.23;112850;1249;22451;-47
2024/04/10 11:01:42;;;;;;;18.90;2.30;;;;;;;32.21;22.59;100424.66;112911;1249;22452;-47
2024/04/10 11:04:18;;;;;;;11.20;1.90;;;;;;;32.66;22.36;100425.19;112879;1249;22425;-47
2024/04/10 11:06:47;;;;;;;6.70;2.20;;;;;;;33.00;21.68;100422.89;112846;1249;22475;-53
2024/04/10 11:09:15;;;;;;;8.30;2.20;;;;;;;33.31;21.53;100417.40;112587;1240;22498;-47
2024/04/10 11:11:42;;;;;;;5.70;1.90;;;;;;;33.57;20.98;100416.60;112852;1248;22396;-47
2024/04/10 11:14:15;;;;;;;4.10;2.10;;;;;;;33.61;20.75;100417.68;112857;1249;22431;-49
2024/04/10 11:16:42;;;;;;;11.60;2.10;;;;;;;33.41;21.19;100420.66;112740;1249;22434;-46
2024/04/10 11:19:09;;;;;;;3.40;1.90;;;;;;;33.29;21.50;100418.36;112872;1249;22412;-55
2024/04/10 11:21:36;;;;;;;6.80;1.80;;;;;;;33.03;21.27;100420.52;112903;1248;22394;-46
2024/04/10 11:24:07;;;;;;;7.10;2.20;;;;;;;32.74;21.20;100421.05;112876;1249;22177;-46
2024/04/10 11:26:34;;;;;;;4.30;1.80;;;;;;;32.43;21.65;100422.98;112810;1249;22402;-54
2024/04/10 11:29:01;;;;;;;4.10;2.10;;;;;;;32.16;21.78;100420.50;112862;1249;22379;-47
2024/04/10 11:31:28;;;;;;;9.80;2.10;;;;;;;31.89;21.53;100419.39;112875;1249;22293;-54
2024/04/10 11:33:55;;;;;;;3.50;2.20;;;;;;;31.68;21.22;100413.81;112889;1249;23042;-47
2024/04/10 11:36:23;;;;;;;6.00;2.40;;;;;;;31.33;21.75;100416.66;112913;1249;22253;-54
2024/04/10 11:38:50;;;;;;;4.80;2.00;;;;;;;31.15;21.86;100414.56;112975;1249;23218;-46
2024/04/10 11:41:17;;;;;;;6.50;2.00;;;;;;;31.12;22.16;100410.29;113007;1248;22502;-46
2024/04/10 11:43:45;;;;;;;4.00;1.80;;;;;;;31.21;22.32;100414.23;111744;1249;22595;-53
2024/04/10 11:46:12;;;;;;;3.10;2.00;;;;;;;31.29;22.16;100413.92;112246;1249;25441;-46
2024/04/10 11:48:38;;;;;;;3.50;1.70;;;;;;;31.34;22.48;100410.84;112996;1248;22404;-46
2024/04/10 11:51:06;;;;;;;3.10;2.20;;;;;;;31.30;21.67;100412.09;112946;1249;22398;-48
2024/04/10 11:53:33;;;;;;;5.90;2.30;;;;;;;31.16;22.00;100408.64;112966;1248;22392;-54
2024/04/10 11:56:08;;;;;;;8.50;2.30;;;;;;;31.15;22.26;100405.54;112712;1249;22506;-55
2024/04/10 11:58:37;;;;;;;4.80;1.90;;;;;;;31.11;21.96;100407.46;112791;1249;22423;-55
2024/04/10 12:01:04;;;;;;;5.10;1.80;;;;;;;30.98;22.11;100407.71;112921;1249;22390;-47
2024/04/10 12:03:31;;;;;;;4.30;1.80;;;;;;;30.93;22.12;100409.86;112990;1249;22377;-46
2024/04/10 12:06:04;;;;;;;2.50;2.10;;;;;;;31.05;22.39;100408.05;112928;1248;22944;-52
2024/04/10 12:08:32;;;;;;;9.30;2.00;;;;;;;31.03;21.86;100400.95;112900;1248;23177;-46
2024/04/10 12:11:00;;;;;;;2.20;1.70;;;;;;;30.98;22.69;100399.55;112906;1249;22393;-46
2024/04/10 12:13:28;;;;;;;4.90;1.90;;;;;;;31.05;22.39;100399.19;112892;1248;23282;-46
2024/04/10 12:15:55;;;;;;;4.10;2.10;;;;;;;31.10;22.23;100394.41;112908;1249;23241;-52
2024/04/10 12:18:22;;;;;;;2.10;1.70;;;;;;;31.07;22.03;100390.20;112913;1248;22304;-46
2024/04/10 12:20:49;;;;;;;5.80;2.20;;;;;;;31.07;22.04;100385.55;112966;1249;23218;-45
2024/04/10 12:23:16;;;;;;;1.60;1.50;;;;;;;31.06;22.02;100382.19;112964;1248;22394;-58
2024/04/10 12:25:43;;;;;;;4.30;2.20;;;;;;;30.90;22.46;100382.94;112957;1249;22233;-45
2024/04/10 12:33:31;;;;;;;8.80;2.20;;;;;;;30.54;22.40;100378.54;110077;1249;22574;-54
2024/04/10 12:38:44;;;;;;;3.70;1.90;;;;;;;30.06;22.65;100373.24;112972;1249;23256;-46
2024/04/10 12:41:11;;;;;;;5.50;2.20;;;;;;;29.87;22.90;100374.56;112950;1248;23311;-53
2024/04/10 12:43:42;;;;;;;3.80;1.90;;;;;;;29.79;23.56;100375.06;112940;1249;22331;-45
2024/04/10 12:46:09;;;;;;;2.90;1.80;;;;;;;29.83;23.38;100371.12;112933;1248;23590;-51
2024/04/10 12:48:37;;;;;;;5.20;1.80;;;;;;;29.91;23.51;100373.16;113022;1249;22443;-45
2024/04/10 12:51:04;;;;;;;4.00;1.80;;;;;;;30.08;24.32;100375.05;112697;1249;22528;-51
2024/04/10 12:53:31;;;;;;;4.60;2.30;;;;;;;30.28;23.84;100371.17;112436;1249;22591;-51
2024/04/10 12:55:58;;;;;;;8.70;1.80;;;;;;;30.46;23.73;100372.55;112396;1249;23238;-50
2024/04/10 12:58:26;;;;;;;5.50;2.10;;;;;;;30.59;23.34;100371.32;112229;1249;22490;-51
2024/04/10 13:00:53;;;;;;;6.00;1.70;;;;;;;30.74;23.17;100367.01;111085;1248;22529;-45
2024/04/10 13:03:23;;;;;;;6.20;2.40;;;;;;;30.98;23.11;100369.14;111617;1249;22434;-45
2024/04/10 13:06:00;;;;;;;12.50;2.20;;;;;;;31.19;22.45;100362.89;113056;1249;22822;-51
2024/04/10 13:08:28;;;;;;;6.40;2.30;;;;;;;31.24;21.79;100361.88;112527;1249;22585;-46
2024/04/10 13:11:09;;;;;;;5.00;1.80;;;;;;;31.17;21.81;100362.45;111725;1249;26809;-46
